sensor_id;sensor_type;location;lat;lon;timestamp;pressure;altitude;pressure_sealevel;temperature;humidity
74242;BME280;62599;49.146;10.426;2023-05-29T00:00:32;95863.63;;;11.69;70.00
74242;BME280;62599;49.146;10.426;2023-05-29T00:02:58;95857.53;;;11.60;70.59
74242;BME280;62599;49.146;10.426;2023-05-29T00:05:23;95864.47;;;11.49;70.89
74242;BME280;62599;49.146;10.426;2023-05-29T00:07:49;95866.00;;;11.38;72.22
74242;BME280;62599;49.146;10.426;2023-05-29T00:10:15;95866.88;;;11.29;72.53
74242;BME280;62599;49.146;10.426;2023-05-29T00:12:41;95862.81;;;11.23;73.12
74242;BME280;62599;49.146;10.426;2023-05-29T00:15:08;95865.38;;;11.20;73.26
74242;BME280;62599;49.146;10.426;2023-05-29T00:17:35;95866.81;;;11.17;73.38
74242;BME280;62599;49.146;10.426;2023-05-29T00:20:02;95868.72;;;11.17;73.46
74242;BME280;62599;49.146;10.426;2023-05-29T00:22:34;95867.47;;;11.14;73.13
74242;BME280;62599;49.146;10.426;2023-05-29T00:25:03;95874.78;;;11.14;73.88
74242;BME280;62599;49.146;10.426;2023-05-29T00:27:29;95870.50;;;11.13;73.68
74242;BME280;62599;49.146;10.426;2023-05-29T00:29:54;95864.50;;;11.07;73.76
74242;BME280;62599;49.146;10.426;2023-05-29T00:32:19;95859.94;;;11.07;73.81
74242;BME280;62599;49.146;10.426;2023-05-29T00:34:45;95855.19;;;11.04;74.29
74242;BME280;62599;49.146;10.426;2023-05-29T00:37:10;95850.78;;;11.00;74.92
74242;BME280;62599;49.146;10.426;2023-05-29T00:39:36;95855.59;;;10.94;74.90
74242;BME280;62599;49.146;10.426;2023-05-29T00:42:01;95859.59;;;10.88;74.97
74242;BME280;62599;49.146;10.426;2023-05-29T00:44:26;95859.47;;;10.84;75.33
74242;BME280;62599;49.146;10.426;2023-05-29T00:46:52;95853.63;;;10.82;75.50
74242;BME280;62599;49.146;10.426;2023-05-29T00:49:20;95857.41;;;10.81;75.46
74242;BME280;62599;49.146;10.426;2023-05-29T00:51:47;95865.50;;;10.81;76.24
74242;BME280;62599;49.146;10.426;2023-05-29T00:54:14;95854.28;;;10.79;76.04
74242;BME280;62599;49.146;10.426;2023-05-29T00:56:43;95851.59;;;10.79;75.37
74242;BME280;62599;49.146;10.426;2023-05-29T00:59:10;95844.94;;;10.77;75.80
74242;BME280;62599;49.146;10.426;2023-05-29T01:01:36;95843.22;;;10.72;75.32
74242;BME280;62599;49.146;10.426;2023-05-29T01:04:02;95855.78;;;10.68;75.98
74242;BME280;62599;49.146;10.426;2023-05-29T01:06:28;95847.44;;;10.61;76.05
74242;BME280;62599;49.146;10.426;2023-05-29T01:08:54;95854.13;;;10.55;76.67
74242;BME280;62599;49.146;10.426;2023-05-29T01:11:30;95853.06;;;10.47;77.44
74242;BME280;62599;49.146;10.426;2023-05-29T01:14:00;95853.56;;;10.41;77.82
74242;BME280;62599;49.146;10.426;2023-05-29T01:16:38;95853.28;;;10.33;78.37
74242;BME280;62599;49.146;10.426;2023-05-29T01:22:11;95848.44;;;10.18;79.52
74242;BME280;62599;49.146;10.426;2023-05-29T01:27:44;95853.06;;;10.09;80.35
74242;BME280;62599;49.146;10.426;2023-05-29T01:30:12;95851.50;;;10.08;79.68
74242;BME280;62599;49.146;10.426;2023-05-29T01:32:40;95836.91;;;10.09;79.64
74242;BME280;62599;49.146;10.426;2023-05-29T01:35:06;95844.53;;;10.07;80.44
74242;BME280;62599;49.146;10.426;2023-05-29T01:37:32;95842.50;;;10.04;80.05
74242;BME280;62599;49.146;10.426;2023-05-29T01:39:57;95839.66;;;10.00;80.22
74242;BME280;62599;49.146;10.426;2023-05-29T01:42:23;95839.03;;;9.95;81.02
74242;BME280;62599;49.146;10.426;2023-05-29T01:44:49;95843.97;;;9.84;82.00
74242;BME280;62599;49.146;10.426;2023-05-29T01:47:15;95835.16;;;9.75;81.87
74242;BME280;62599;49.146;10.426;2023-05-29T01:49:41;95832.97;;;9.68;82.24
74242;BME280;62599;49.146;10.426;2023-05-29T01:52:09;95839.63;;;9.62;83.15
74242;BME280;62599;49.146;10.426;2023-05-29T01:54:35;95840.28;;;9.59;82.90
74242;BME280;62599;49.146;10.426;2023-05-29T01:57:01;95837.13;;;9.57;83.24
74242;BME280;62599;49.146;10.426;2023-05-29T01:59:27;95837.75;;;9.54;83.01
74242;BME280;62599;49.146;10.426;2023-05-29T02:01:53;95841.22;;;9.54;83.38
74242;BME280;62599;49.146;10.426;2023-05-29T02:04:19;95833.00;;;9.51;83.76
74242;BME280;62599;49.146;10.426;2023-05-29T02:06:44;95837.94;;;9.49;84.22
74242;BME280;62599;49.146;10.426;2023-05-29T02:09:10;95842.19;;;9.50;84.50
74242;BME280;62599;49.146;10.426;2023-05-29T02:11:35;95832.22;;;9.50;84.81
74242;BME280;62599;49.146;10.426;2023-05-29T02:14:01;95831.09;;;9.51;84.36
74242;BME280;62599;49.146;10.426;2023-05-29T02:16:28;95829.25;;;9.52;84.50
74242;BME280;62599;49.146;10.426;2023-05-29T02:18:54;95831.44;;;9.50;85.20
74242;BME280;62599;49.146;10.426;2023-05-29T02:21:19;95836.06;;;9.40;85.85
74242;BME280;62599;49.146;10.426;2023-05-29T02:23:44;95829.28;;;9.34;85.69
74242;BME280;62599;49.146;10.426;2023-05-29T02:26:12;95833.72;;;9.30;85.81
74242;BME280;62599;49.146;10.426;2023-05-29T02:28:37;95826.91;;;9.24;86.02
74242;BME280;62599;49.146;10.426;2023-05-29T02:31:03;95826.44;;;9.22;86.13
74242;BME280;62599;49.146;10.426;2023-05-29T02:33:28;95827.09;;;9.19;86.39
74242;BME280;62599;49.146;10.426;2023-05-29T02:35:54;95831.66;;;9.19;86.39
74242;BME280;62599;49.146;10.426;2023-05-29T02:38:20;95833.09;;;9.16;86.96
74242;BME280;62599;49.146;10.426;2023-05-29T02:40:45;95831.03;;;9.13;87.04
74242;BME280;62599;49.146;10.426;2023-05-29T02:43:12;95823.47;;;9.06;87.32
74242;BME280;62599;49.146;10.426;2023-05-29T02:45:38;95823.94;;;9.00;87.80
74242;BME280;62599;49.146;10.426;2023-05-29T02:48:03;95819.34;;;9.00;88.27
74242;BME280;62599;49.146;10.426;2023-05-29T02:50:29;95815.41;;;8.98;88.18
74242;BME280;62599;49.146;10.426;2023-05-29T02:52:54;95818.88;;;8.98;88.15
74242;BME280;62599;49.146;10.426;2023-05-29T02:55:20;95822.53;;;8.94;88.56
74242;BME280;62599;49.146;10.426;2023-05-29T02:57:45;95824.72;;;8.91;89.03
74242;BME280;62599;49.146;10.426;2023-05-29T03:00:11;95821.88;;;8.88;88.77
74242;BME280;62599;49.146;10.426;2023-05-29T03:02:36;95819.38;;;8.83;89.11
74242;BME280;62599;49.146;10.426;2023-05-29T03:05:02;95823.00;;;8.78;89.67
74242;BME280;62599;49.146;10.426;2023-05-29T03:07:28;95818.28;;;8.75;90.28
74242;BME280;62599;49.146;10.426;2023-05-29T03:09:54;95820.31;;;8.70;90.04
74242;BME280;62599;49.146;10.426;2023-05-29T03:12:20;95827.59;;;8.69;90.57
74242;BME280;62599;49.146;10.426;2023-05-29T03:14:46;95828.69;;;8.68;90.41
74242;BME280;62599;49.146;10.426;2023-05-29T03:17:12;95820.63;;;8.68;90.38
74242;BME280;62599;49.146;10.426;2023-05-29T03:19:38;95832.63;;;8.71;90.37
74242;BME280;62599;49.146;10.426;2023-05-29T03:22:04;95821.88;;;8.71;90.59
74242;BME280;62599;49.146;10.426;2023-05-29T03:24:29;95818.41;;;8.70;90.21
74242;BME280;62599;49.146;10.426;2023-05-29T03:26:54;95819.53;;;8.69;90.82
74242;BME280;62599;49.146;10.426;2023-05-29T03:29:21;95822.84;;;8.66;90.80
74242;BME280;62599;49.146;10.426;2023-05-29T03:31:47;95824.56;;;8.62;91.36
74242;BME280;62599;49.146;10.426;2023-05-29T03:34:12;95831.06;;;8.61;91.27
74242;BME280;62599;49.146;10.426;2023-05-29T03:36:38;95833.09;;;8.55;91.31
74242;BME280;62599;49.146;10.426;2023-05-29T03:39:04;95828.34;;;8.52;91.78
74242;BME280;62599;49.146;10.426;2023-05-29T03:41:29;95829.13;;;8.53;92.35
74242;BME280;62599;49.146;10.426;2023-05-29T03:43:55;95836.56;;;8.56;92.40
74242;BME280;62599;49.146;10.426;2023-05-29T03:46:20;95839.28;;;8.64;92.05
74242;BME280;62599;49.146;10.426;2023-05-29T03:48:45;95833.25;;;8.67;92.19
74242;BME280;62599;49.146;10.426;2023-05-29T03:51:11;95838.78;;;8.71;92.05
74242;BME280;62599;49.146;10.426;2023-05-29T03:53:36;95825.84;;;8.73;91.83
74242;BME280;62599;49.146;10.426;2023-05-29T03:56:02;95829.81;;;8.76;91.20
74242;BME280;62599;49.146;10.426;2023-05-29T03:58:27;95834.53;;;8.79;91.48
74242;BME280;62599;49.146;10.426;2023-05-29T04:00:53;95829.63;;;8.81;91.24
74242;BME280;62599;49.146;10.426;2023-05-29T04:03:18;95835.94;;;8.85;91.39
74242;BME280;62599;49.146;10.426;2023-05-29T04:05:44;95825.38;;;8.88;91.13
74242;BME280;62599;49.146;10.426;2023-05-29T04:08:09;95831.22;;;8.90;90.91
74242;BME280;62599;49.146;10.426;2023-05-29T04:10:36;95842.91;;;8.95;91.00
74242;BME280;62599;49.146;10.426;2023-05-29T04:13:02;95844.63;;;8.99;91.09
74242;BME280;62599;49.146;10.426;2023-05-29T04:15:27;95841.47;;;9.06;90.90
74242;BME280;62599;49.146;10.426;2023-05-29T04:17:53;95848.28;;;9.12;91.02
74242;BME280;62599;49.146;10.426;2023-05-29T04:20:20;95850.78;;;9.17;90.48
74242;BME280;62599;49.146;10.426;2023-05-29T04:22:45;95848.59;;;9.19;90.30
74242;BME280;62599;49.146;10.426;2023-05-29T04:25:11;95858.03;;;9.25;90.51
74242;BME280;62599;49.146;10.426;2023-05-29T04:27:36;95855.50;;;9.29;90.71
74242;BME280;62599;49.146;10.426;2023-05-29T04:30:06;95856.44;;;9.33;90.86
74242;BME280;62599;49.146;10.426;2023-05-29T04:32:34;95855.97;;;9.39;90.94
74242;BME280;62599;49.146;10.426;2023-05-29T04:35:03;95861.34;;;9.48;90.82
74242;BME280;62599;49.146;10.426;2023-05-29T04:37:29;95870.16;;;9.57;90.64
74242;BME280;62599;49.146;10.426;2023-05-29T04:39:55;95871.09;;;9.70;90.57
74242;BME280;62599;49.146;10.426;2023-05-29T04:42:22;95875.97;;;9.85;90.08
74242;BME280;62599;49.146;10.426;2023-05-29T04:45:02;95867.06;;;9.94;89.54
74242;BME280;62599;49.146;10.426;2023-05-29T04:47:29;95869.72;;;10.02;88.63
74242;BME280;62599;49.146;10.426;2023-05-29T04:49:57;95876.19;;;10.10;88.02
74242;BME280;62599;49.146;10.426;2023-05-29T04:52:24;95881.84;;;10.17;88.17
74242;BME280;62599;49.146;10.426;2023-05-29T04:54:50;95883.41;;;10.27;87.89
74242;BME280;62599;49.146;10.426;2023-05-29T04:57:16;95887.66;;;10.36;87.67
74242;BME280;62599;49.146;10.426;2023-05-29T04:59:41;95895.03;;;10.48;88.05
74242;BME280;62599;49.146;10.426;2023-05-29T05:02:07;95895.31;;;10.55;87.40
74242;BME280;62599;49.146;10.426;2023-05-29T05:04:32;95896.19;;;10.68;87.30
74242;BME280;62599;49.146;10.426;2023-05-29T05:06:57;95911.31;;;10.81;88.01
74242;BME280;62599;49.146;10.426;2023-05-29T05:09:23;95913.44;;;10.97;87.91
74242;BME280;62599;49.146;10.426;2023-05-29T05:11:49;95908.59;;;11.11;86.83
74242;BME280;62599;49.146;10.426;2023-05-29T05:14:15;95920.00;;;11.29;85.88
74242;BME280;62599;49.146;10.426;2023-05-29T05:16:43;95915.59;;;11.45;84.81
74242;BME280;62599;49.146;10.426;2023-05-29T05:19:08;95916.88;;;11.60;82.53
74242;BME280;62599;49.146;10.426;2023-05-29T05:21:34;95926.19;;;11.84;79.91
74242;BME280;62599;49.146;10.426;2023-05-29T05:24:00;95924.94;;;12.02;78.03
74242;BME280;62599;49.146;10.426;2023-05-29T05:26:25;95925.06;;;12.18;77.66
74242;BME280;62599;49.146;10.426;2023-05-29T05:28:54;95935.06;;;12.29;76.25
74242;BME280;62599;49.146;10.426;2023-05-29T05:31:19;95923.06;;;12.39;76.67
74242;BME280;62599;49.146;10.426;2023-05-29T05:33:47;95939.72;;;12.53;77.49
74242;BME280;62599;49.146;10.426;2023-05-29T05:36:13;95942.09;;;12.67;78.53
74242;BME280;62599;49.146;10.426;2023-05-29T05:38:39;95935.88;;;12.79;75.25
74242;BME280;62599;49.146;10.426;2023-05-29T05:41:04;95935.44;;;12.89;73.83
74242;BME280;62599;49.146;10.426;2023-05-29T05:43:30;95938.47;;;13.00;72.67
74242;BME280;62599;49.146;10.426;2023-05-29T05:45:55;95931.69;;;13.06;72.65
74242;BME280;62599;49.146;10.426;2023-05-29T05:48:20;95932.34;;;13.15;73.38
74242;BME280;62599;49.146;10.426;2023-05-29T05:50:46;95937.97;;;13.22;72.20
74242;BME280;62599;49.146;10.426;2023-05-29T05:53:11;95948.25;;;13.29;71.45
74242;BME280;62599;49.146;10.426;2023-05-29T05:55:37;95952.38;;;13.39;72.94
74242;BME280;62599;49.146;10.426;2023-05-29T05:58:06;95947.16;;;13.46;72.61
74242;BME280;62599;49.146;10.426;2023-05-29T06:00:31;95956.38;;;13.57;70.61
74242;BME280;62599;49.146;10.426;2023-05-29T06:02:56;95952.03;;;13.68;71.83
74242;BME280;62599;49.146;10.426;2023-05-29T06:05:22;95957.44;;;13.81;71.48
74242;BME280;62599;49.146;10.426;2023-05-29T06:07:48;95952.31;;;13.91;69.41
74242;BME280;62599;49.146;10.426;2023-05-29T06:10:13;95949.53;;;14.04;69.58
74242;BME280;62599;49.146;10.426;2023-05-29T06:12:39;95954.19;;;14.19;69.42
74242;BME280;62599;49.146;10.426;2023-05-29T06:15:04;95944.41;;;14.30;67.49
74242;BME280;62599;49.146;10.426;2023-05-29T06:17:30;95946.69;;;14.44;67.68
74242;BME280;62599;49.146;10.426;2023-05-29T06:19:56;95955.19;;;14.58;65.93
74242;BME280;62599;49.146;10.426;2023-05-29T06:22:22;95955.25;;;14.78;65.43
74242;BME280;62599;49.146;10.426;2023-05-29T06:24:47;95953.78;;;14.96;64.20
74242;BME280;62599;49.146;10.426;2023-05-29T06:27:13;95960.84;;;15.01;63.68
74242;BME280;62599;49.146;10.426;2023-05-29T06:29:38;95952.44;;;15.06;62.27
74242;BME280;62599;49.146;10.426;2023-05-29T06:32:04;95960.38;;;15.14;62.48
74242;BME280;62599;49.146;10.426;2023-05-29T06:34:30;95967.53;;;15.23;59.64
74242;BME280;62599;49.146;10.426;2023-05-29T06:36:56;95969.97;;;15.28;59.15
74242;BME280;62599;49.146;10.426;2023-05-29T06:39:21;95970.56;;;15.37;59.85
74242;BME280;62599;49.146;10.426;2023-05-29T06:41:47;95973.00;;;15.42;59.01
74242;BME280;62599;49.146;10.426;2023-05-29T06:44:12;95985.56;;;15.50;60.22
74242;BME280;62599;49.146;10.426;2023-05-29T06:46:37;95973.44;;;15.63;60.35
74242;BME280;62599;49.146;10.426;2023-05-29T06:49:03;95981.06;;;15.74;59.68
74242;BME280;62599;49.146;10.426;2023-05-29T06:51:28;95978.50;;;15.81;58.05
74242;BME280;62599;49.146;10.426;2023-05-29T06:53:54;95983.75;;;15.93;59.33
74242;BME280;62599;49.146;10.426;2023-05-29T06:56:20;95992.97;;;16.08;58.73
74242;BME280;62599;49.146;10.426;2023-05-29T06:58:46;95992.97;;;16.08;58.71
74242;BME280;62599;49.146;10.426;2023-05-29T07:01:11;95993.31;;;16.26;59.02
74242;BME280;62599;49.146;10.426;2023-05-29T07:03:37;95998.94;;;16.36;57.60
74242;BME280;62599;49.146;10.426;2023-05-29T07:06:03;95989.88;;;16.52;57.90
74242;BME280;62599;49.146;10.426;2023-05-29T07:08:28;95996.63;;;16.58;56.40
74242;BME280;62599;49.146;10.426;2023-05-29T07:10:54;95994.69;;;16.58;57.92
74242;BME280;62599;49.146;10.426;2023-05-29T07:13:19;95989.00;;;16.67;57.43
74242;BME280;62599;49.146;10.426;2023-05-29T07:15:45;95993.56;;;16.82;57.50
74242;BME280;62599;49.146;10.426;2023-05-29T07:18:11;95993.63;;;16.86;56.34
74242;BME280;62599;49.146;10.426;2023-05-29T07:20:37;95996.75;;;16.88;55.73
74242;BME280;62599;49.146;10.426;2023-05-29T07:23:02;95997.28;;;16.97;56.25
74242;BME280;62599;49.146;10.426;2023-05-29T07:25:29;95995.97;;;17.11;56.40
74242;BME280;62599;49.146;10.426;2023-05-29T07:27:54;95995.75;;;17.23;56.05
74242;BME280;62599;49.146;10.426;2023-05-29T07:30:20;96002.50;;;17.32;55.05
74242;BME280;62599;49.146;10.426;2023-05-29T07:32:51;95999.84;;;17.36;54.28
74242;BME280;62599;49.146;10.426;2023-05-29T07:35:19;95997.25;;;17.47;54.40
74242;BME280;62599;49.146;10.426;2023-05-29T07:37:45;96001.69;;;17.59;54.94
74242;BME280;62599;49.146;10.426;2023-05-29T07:40:10;96002.34;;;17.78;53.81
74242;BME280;62599;49.146;10.426;2023-05-29T07:42:44;96002.50;;;17.89;53.82
74242;BME280;62599;49.146;10.426;2023-05-29T07:45:13;95998.28;;;17.95;52.43
74242;BME280;62599;49.146;10.426;2023-05-29T07:47:38;96000.31;;;18.02;52.35
74242;BME280;62599;49.146;10.426;2023-05-29T07:50:31;95994.25;;;18.16;51.88
74242;BME280;62599;49.146;10.426;2023-05-29T07:53:15;96008.31;;;18.21;49.34
74242;BME280;62599;49.146;10.426;2023-05-29T07:56:09;95998.28;;;18.29;50.58
74242;BME280;62599;49.146;10.426;2023-05-29T08:05:12;96010.78;;;18.30;49.15
74242;BME280;62599;49.146;10.426;2023-05-29T08:07:38;96011.25;;;18.39;49.97
74242;BME280;62599;49.146;10.426;2023-05-29T08:10:04;96011.78;;;18.52;49.04
74242;BME280;62599;49.146;10.426;2023-05-29T08:12:30;96005.19;;;18.57;48.95
74242;BME280;62599;49.146;10.426;2023-05-29T08:14:56;96000.56;;;18.61;49.41
74242;BME280;62599;49.146;10.426;2023-05-29T08:17:24;96003.94;;;18.88;49.20
74242;BME280;62599;49.146;10.426;2023-05-29T08:19:49;95995.78;;;18.91;49.63
74242;BME280;62599;49.146;10.426;2023-05-29T08:22:17;96000.16;;;18.99;47.70
74242;BME280;62599;49.146;10.426;2023-05-29T08:24:46;95991.59;;;19.05;47.31
74242;BME280;62599;49.146;10.426;2023-05-29T08:27:14;95995.56;;;19.11;46.83
74242;BME280;62599;49.146;10.426;2023-05-29T08:29:40;96006.84;;;19.09;46.23
74242;BME280;62599;49.146;10.426;2023-05-29T08:32:05;96000.25;;;19.14;46.72
74242;BME280;62599;49.146;10.426;2023-05-29T08:34:37;95995.63;;;19.21;46.41
74242;BME280;62599;49.146;10.426;2023-05-29T08:37:03;95999.56;;;19.31;46.03
74242;BME280;62599;49.146;10.426;2023-05-29T08:39:30;95997.28;;;19.37;45.23
74242;BME280;62599;49.146;10.426;2023-05-29T08:42:01;95998.97;;;19.56;46.20
74242;BME280;62599;49.146;10.426;2023-05-29T08:44:31;95997.38;;;19.51;43.22
74242;BME280;62599;49.146;10.426;2023-05-29T08:47:01;95996.91;;;19.38;43.11
74242;BME280;62599;49.146;10.426;2023-05-29T08:52:34;96004.28;;;19.34;43.52
74242;BME280;62599;49.146;10.426;2023-05-29T08:55:09;95985.72;;;19.58;43.25
74242;BME280;62599;49.146;10.426;2023-05-29T08:57:36;95990.53;;;19.82;44.69
74242;BME280;62599;49.146;10.426;2023-05-29T09:00:03;95991.38;;;19.93;44.20
74242;BME280;62599;49.146;10.426;2023-05-29T09:03:04;95989.81;;;20.00;41.15
74242;BME280;62599;49.146;10.426;2023-05-29T09:05:29;95996.88;;;20.11;42.76
74242;BME280;62599;49.146;10.426;2023-05-29T09:07:56;95990.69;;;20.25;41.92
74242;BME280;62599;49.146;10.426;2023-05-29T09:10:22;95996.56;;;20.27;41.59
74242;BME280;62599;49.146;10.426;2023-05-29T09:12:48;95993.06;;;20.34;40.36
74242;BME280;62599;49.146;10.426;2023-05-29T09:15:23;95987.19;;;20.35;41.03
74242;BME280;62599;49.146;10.426;2023-05-29T09:17:50;95998.56;;;20.41;40.66
74242;BME280;62599;49.146;10.426;2023-05-29T09:20:23;95990.72;;;20.39;40.12
74242;BME280;62599;49.146;10.426;2023-05-29T09:23:07;95999.72;;;20.43;39.98
74242;BME280;62599;49.146;10.426;2023-05-29T09:25:40;95995.84;;;20.48;40.63
74242;BME280;62599;49.146;10.426;2023-05-29T09:28:08;95993.88;;;20.45;40.86
74242;BME280;62599;49.146;10.426;2023-05-29T09:30:41;96000.91;;;20.42;41.21
74242;BME280;62599;49.146;10.426;2023-05-29T09:33:08;96000.97;;;20.53;38.82
74242;BME280;62599;49.146;10.426;2023-05-29T09:35:42;96000.56;;;20.55;38.74
74242;BME280;62599;49.146;10.426;2023-05-29T09:38:09;96002.53;;;20.68;36.67
74242;BME280;62599;49.146;10.426;2023-05-29T09:40:36;96006.44;;;20.64;37.58
74242;BME280;62599;49.146;10.426;2023-05-29T09:43:13;96008.78;;;20.58;36.61
74242;BME280;62599;49.146;10.426;2023-05-29T09:45:44;96011.09;;;20.46;36.50
74242;BME280;62599;49.146;10.426;2023-05-29T09:48:15;96006.84;;;20.52;36.93
74242;BME280;62599;49.146;10.426;2023-05-29T09:50:41;96003.31;;;20.65;37.58
74242;BME280;62599;49.146;10.426;2023-05-29T09:53:20;96006.81;;;20.62;37.17
74242;BME280;62599;49.146;10.426;2023-05-29T09:55:48;96005.25;;;20.54;36.48
74242;BME280;62599;49.146;10.426;2023-05-29T09:58:23;96000.19;;;20.53;36.96
74242;BME280;62599;49.146;10.426;2023-05-29T10:00:50;95998.22;;;20.57;37.80
74242;BME280;62599;49.146;10.426;2023-05-29T10:03:17;95999.44;;;20.91;38.44
74242;BME280;62599;49.146;10.426;2023-05-29T10:05:46;95994.75;;;21.21;36.68
74242;BME280;62599;49.146;10.426;2023-05-29T10:08:13;95999.03;;;21.29;37.94
74242;BME280;62599;49.146;10.426;2023-05-29T10:10:44;95992.41;;;21.37;35.86
74242;BME280;62599;49.146;10.426;2023-05-29T10:13:12;95999.06;;;21.39;37.20
74242;BME280;62599;49.146;10.426;2023-05-29T10:15:41;95999.41;;;21.31;36.22
74242;BME280;62599;49.146;10.426;2023-05-29T10:18:21;95990.81;;;21.50;38.29
74242;BME280;62599;49.146;10.426;2023-05-29T10:20:50;95995.53;;;21.50;36.27
74242;BME280;62599;49.146;10.426;2023-05-29T10:23:21;95999.84;;;21.40;35.81
74242;BME280;62599;49.146;10.426;2023-05-29T10:25:51;95989.25;;;21.35;35.15
74242;BME280;62599;49.146;10.426;2023-05-29T10:28:18;96000.59;;;21.44;33.99
74242;BME280;62599;49.146;10.426;2023-05-29T10:30:50;95994.72;;;21.46;33.45
74242;BME280;62599;49.146;10.426;2023-05-29T10:33:26;95990.81;;;21.43;35.41
74242;BME280;62599;49.146;10.426;2023-05-29T10:38:30;95990.72;;;21.82;34.31
74242;BME280;62599;49.146;10.426;2023-05-29T10:47:07;95978.13;;;21.96;34.63
74242;BME280;62599;49.146;10.426;2023-05-29T10:49:34;95987.63;;;21.73;34.09
74242;BME280;62599;49.146;10.426;2023-05-29T10:52:06;95977.06;;;21.65;34.93
74242;BME280;62599;49.146;10.426;2023-05-29T10:54:50;95977.78;;;21.90;37.32
74242;BME280;62599;49.146;10.426;2023-05-29T10:57:17;95974.56;;;22.06;36.60
74242;BME280;62599;49.146;10.426;2023-05-29T10:59:45;95970.25;;;22.08;36.01
74242;BME280;62599;49.146;10.426;2023-05-29T11:02:10;95970.16;;;22.33;36.46
74242;BME280;62599;49.146;10.426;2023-05-29T11:04:36;95968.84;;;22.52;36.65
74242;BME280;62599;49.146;10.426;2023-05-29T11:07:02;95969.13;;;22.69;34.87
74242;BME280;62599;49.146;10.426;2023-05-29T11:09:35;95966.81;;;22.64;32.72
74242;BME280;62599;49.146;10.426;2023-05-29T11:14:54;95974.28;;;22.63;32.72
74242;BME280;62599;49.146;10.426;2023-05-29T11:20:09;95975.25;;;22.87;32.86
74242;BME280;62599;49.146;10.426;2023-05-29T11:25:15;95976.31;;;23.08;32.52
74242;BME280;62599;49.146;10.426;2023-05-29T11:27:42;95972.38;;;23.09;32.17
74242;BME280;62599;49.146;10.426;2023-05-29T11:30:07;95964.94;;;23.05;33.07
74242;BME280;62599;49.146;10.426;2023-05-29T11:32:34;95978.59;;;23.16;33.10
74242;BME280;62599;49.146;10.426;2023-05-29T11:35:07;95975.97;;;22.98;31.78
74242;BME280;62599;49.146;10.426;2023-05-29T11:37:34;95966.72;;;22.78;31.95
74242;BME280;62599;49.146;10.426;2023-05-29T11:40:03;95967.88;;;22.80;32.61
74242;BME280;62599;49.146;10.426;2023-05-29T11:42:30;95965.25;;;22.63;31.95
74242;BME280;62599;49.146;10.426;2023-05-29T11:44:55;95965.97;;;22.74;33.87
74242;BME280;62599;49.146;10.426;2023-05-29T11:47:59;95962.00;;;22.78;33.15
74242;BME280;62599;49.146;10.426;2023-05-29T11:50:27;95957.19;;;22.93;33.25
74242;BME280;62599;49.146;10.426;2023-05-29T11:52:52;95957.91;;;23.01;32.77
74242;BME280;62599;49.146;10.426;2023-05-29T11:55:19;95954.56;;;23.24;33.90
74242;BME280;62599;49.146;10.426;2023-05-29T11:57:46;95951.19;;;23.47;34.19
74242;BME280;62599;49.146;10.426;2023-05-29T12:00:14;95951.88;;;23.58;32.55
74242;BME280;62599;49.146;10.426;2023-05-29T12:02:40;95955.75;;;23.64;32.25
74242;BME280;62599;49.146;10.426;2023-05-29T12:05:07;95955.72;;;23.68;32.40
74242;BME280;62599;49.146;10.426;2023-05-29T12:07:33;95952.09;;;23.74;33.04
74242;BME280;62599;49.146;10.426;2023-05-29T12:10:13;95956.25;;;23.90;32.83
74242;BME280;62599;49.146;10.426;2023-05-29T12:12:39;95951.06;;;23.61;30.91
74242;BME280;62599;49.146;10.426;2023-05-29T12:15:06;95961.31;;;23.57;32.05
74242;BME280;62599;49.146;10.426;2023-05-29T12:17:32;95955.88;;;23.50;30.64
74242;BME280;62599;49.146;10.426;2023-05-29T12:19:58;95950.91;;;23.38;31.59
74242;BME280;62599;49.146;10.426;2023-05-29T12:22:35;95958.53;;;23.19;30.98
74242;BME280;62599;49.146;10.426;2023-05-29T12:27:33;95958.38;;;23.37;31.67
74242;BME280;62599;49.146;10.426;2023-05-29T12:30:11;95949.94;;;23.55;33.30
74242;BME280;62599;49.146;10.426;2023-05-29T12:32:41;95955.56;;;23.82;32.76
74242;BME280;62599;49.146;10.426;2023-05-29T12:35:15;95952.91;;;24.06;32.35
74242;BME280;62599;49.146;10.426;2023-05-29T12:37:45;95955.53;;;24.16;31.68
74242;BME280;62599;49.146;10.426;2023-05-29T12:40:23;95950.50;;;24.38;31.59
74242;BME280;62599;49.146;10.426;2023-05-29T12:42:54;95951.25;;;24.42;31.08
74242;BME280;62599;49.146;10.426;2023-05-29T12:45:19;95947.91;;;24.55;30.39
74242;BME280;62599;49.146;10.426;2023-05-29T12:47:56;95944.38;;;24.54;29.65
74242;BME280;62599;49.146;10.426;2023-05-29T12:50:30;95951.94;;;24.19;29.82
74242;BME280;62599;49.146;10.426;2023-05-29T12:55:23;95943.66;;;23.89;30.50
74242;BME280;62599;49.146;10.426;2023-05-29T12:57:48;95954.41;;;24.10;31.27
74242;BME280;62599;49.146;10.426;2023-05-29T13:00:15;95948.09;;;24.44;30.18
74242;BME280;62599;49.146;10.426;2023-05-29T13:02:40;95939.97;;;24.60;31.39
74242;BME280;62599;49.146;10.426;2023-05-29T13:05:06;95932.91;;;24.59;30.14
74242;BME280;62599;49.146;10.426;2023-05-29T13:07:35;95932.44;;;24.37;31.47
74242;BME280;62599;49.146;10.426;2023-05-29T13:10:00;95937.03;;;24.17;31.75
74242;BME280;62599;49.146;10.426;2023-05-29T13:12:27;95924.00;;;24.21;32.13
74242;BME280;62599;49.146;10.426;2023-05-29T13:14:52;95927.69;;;24.38;31.67
74242;BME280;62599;49.146;10.426;2023-05-29T13:17:21;95934.22;;;24.51;30.71
74242;BME280;62599;49.146;10.426;2023-05-29T13:19:46;95936.13;;;24.54;31.46
74242;BME280;62599;49.146;10.426;2023-05-29T13:22:11;95935.72;;;24.56;30.29
74242;BME280;62599;49.146;10.426;2023-05-29T13:24:37;95928.78;;;24.47;30.85
74242;BME280;62599;49.146;10.426;2023-05-29T13:27:02;95938.06;;;24.57;31.12
74242;BME280;62599;49.146;10.426;2023-05-29T13:29:28;95931.75;;;24.57;31.02
74242;BME280;62599;49.146;10.426;2023-05-29T13:31:54;95919.63;;;24.78;30.91